sensor_id;sensor_type;location;lat;lon;timestamp;temperature;humidity
666;DHT22;315;48.738;9.126;2023-07-29T00:00:46;17.40;99.90
666;DHT22;315;48.738;9.126;2023-07-29T00:03:12;17.40;99.90
666;DHT22;315;48.738;9.126;2023-07-29T00:05:38;17.40;99.90
666;DHT22;315;48.738;9.126;2023-07-29T00:08:04;17.40;99.90
666;DHT22;315;48.738;9.126;2023-07-29T00:10:31;17.40;99.90
666;DHT22;315;48.738;9.126;2023-07-29T00:12:57;17.60;99.90
666;DHT22;315;48.738;9.126;2023-07-29T00:15:23;17.60;99.90
666;DHT22;315;48.738;9.126;2023-07-29T00:17:48;17.50;99.90
666;DHT22;315;48.738;9.126;2023-07-29T00:20:14;17.50;99.90
666;DHT22;315;48.738;9.126;2023-07-29T00:22:39;17.50;99.90
666;DHT22;315;48.738;9.126;2023-07-29T00:25:05;17.50;99.90
666;DHT22;315;48.738;9.126;2023-07-29T00:27:31;17.50;99.90
666;DHT22;315;48.738;9.126;2023-07-29T00:29:56;17.50;99.90
666;DHT22;315;48.738;9.126;2023-07-29T00:32:22;17.40;99.90
666;DHT22;315;48.738;9.126;2023-07-29T00:34:47;17.40;99.90
666;DHT22;315;48.738;9.126;2023-07-29T00:37:13;17.40;99.90
666;DHT22;315;48.738;9.126;2023-07-29T00:39:38;17.50;99.90
666;DHT22;315;48.738;9.126;2023-07-29T00:42:05;17.50;99.90
666;DHT22;315;48.738;9.126;2023-07-29T00:44:30;17.40;99.90
666;DHT22;315;48.738;9.126;2023-07-29T00:47:02;17.50;99.90
666;DHT22;315;48.738;9.126;2023-07-29T00:49:27;17.50;99.90
666;DHT22;315;48.738;9.126;2023-07-29T00:51:53;17.40;99.90
666;DHT22;315;48.738;9.126;2023-07-29T00:54:19;17.50;99.90
666;DHT22;315;48.738;9.126;2023-07-29T00:56:44;17.50;99.90
666;DHT22;315;48.738;9.126;2023-07-29T00:59:10;17.50;99.90
666;DHT22;315;48.738;9.126;2023-07-29T01:01:36;17.50;99.90
666;DHT22;315;48.738;9.126;2023-07-29T01:04:01;17.50;99.90
666;DHT22;315;48.738;9.126;2023-07-29T01:06:41;17.60;99.90
666;DHT22;315;48.738;9.126;2023-07-29T01:11:58;17.50;99.90
666;DHT22;315;48.738;9.126;2023-07-29T01:17:00;17.50;99.90
666;DHT22;315;48.738;9.126;2023-07-29T01:22:16;17.50;99.90
666;DHT22;315;48.738;9.126;2023-07-29T01:24:41;17.50;99.90
666;DHT22;315;48.738;9.126;2023-07-29T01:27:07;17.40;99.90
666;DHT22;315;48.738;9.126;2023-07-29T01:29:33;17.40;99.90
666;DHT22;315;48.738;9.126;2023-07-29T01:32:04;17.40;99.90
666;DHT22;315;48.738;9.126;2023-07-29T01:34:54;17.30;99.90
666;DHT22;315;48.738;9.126;2023-07-29T01:37:25;17.30;99.90
666;DHT22;315;48.738;9.126;2023-07-29T01:39:55;17.40;99.90
666;DHT22;315;48.738;9.126;2023-07-29T01:42:22;17.40;99.90
666;DHT22;315;48.738;9.126;2023-07-29T01:44:48;17.40;99.90
666;DHT22;315;48.738;9.126;2023-07-29T01:47:14;17.40;99.90
666;DHT22;315;48.738;9.126;2023-07-29T01:49:39;17.50;99.90
666;DHT22;315;48.738;9.126;2023-07-29T01:52:05;17.40;99.90
666;DHT22;315;48.738;9.126;2023-07-29T01:54:30;17.30;99.90
666;DHT22;315;48.738;9.126;2023-07-29T01:56:56;17.40;99.90
666;DHT22;315;48.738;9.126;2023-07-29T01:59:21;17.30;99.90
666;DHT22;315;48.738;9.126;2023-07-29T02:01:47;17.40;99.90
666;DHT22;315;48.738;9.126;2023-07-29T02:04:14;17.40;99.90
666;DHT22;315;48.738;9.126;2023-07-29T02:06:39;17.30;99.90
666;DHT22;315;48.738;9.126;2023-07-29T02:09:05;17.30;99.90
666;DHT22;315;48.738;9.126;2023-07-29T02:11:30;17.30;99.90
666;DHT22;315;48.738;9.126;2023-07-29T02:13:56;17.20;99.90
666;DHT22;315;48.738;9.126;2023-07-29T02:16:22;17.20;99.90
666;DHT22;315;48.738;9.126;2023-07-29T02:18:48;17.10;99.90
666;DHT22;315;48.738;9.126;2023-07-29T02:21:15;17.10;99.90
666;DHT22;315;48.738;9.126;2023-07-29T02:23:40;17.10;99.90
666;DHT22;315;48.738;9.126;2023-07-29T02:26:06;17.10;99.90
666;DHT22;315;48.738;9.126;2023-07-29T02:28:31;17.10;99.90
666;DHT22;315;48.738;9.126;2023-07-29T02:33:42;17.10;99.90
666;DHT22;315;48.738;9.126;2023-07-29T02:36:08;17.10;99.90
666;DHT22;315;48.738;9.126;2023-07-29T02:38:34;17.10;99.90
666;DHT22;315;48.738;9.126;2023-07-29T02:40:59;17.10;99.90
666;DHT22;315;48.738;9.126;2023-07-29T02:43:25;17.10;99.90
666;DHT22;315;48.738;9.126;2023-07-29T02:45:50;17.10;99.90
666;DHT22;315;48.738;9.126;2023-07-29T02:48:16;17.10;99.90
666;DHT22;315;48.738;9.126;2023-07-29T02:50:41;17.10;99.90
666;DHT22;315;48.738;9.126;2023-07-29T02:53:07;17.00;99.90
666;DHT22;315;48.738;9.126;2023-07-29T02:55:32;17.00;99.90
666;DHT22;315;48.738;9.126;2023-07-29T02:57:58;17.00;99.90
666;DHT22;315;48.738;9.126;2023-07-29T03:00:23;17.00;99.90
666;DHT22;315;48.738;9.126;2023-07-29T03:02:50;17.00;99.90
666;DHT22;315;48.738;9.126;2023-07-29T03:05:15;17.00;99.90
666;DHT22;315;48.738;9.126;2023-07-29T03:07:41;17.10;99.90
666;DHT22;315;48.738;9.126;2023-07-29T03:10:06;17.10;99.90
666;DHT22;315;48.738;9.126;2023-07-29T03:12:32;17.10;99.90
666;DHT22;315;48.738;9.126;2023-07-29T03:14:58;17.10;99.90
666;DHT22;315;48.738;9.126;2023-07-29T03:17:25;17.00;99.90
666;DHT22;315;48.738;9.126;2023-07-29T03:19:51;17.10;99.90
666;DHT22;315;48.738;9.126;2023-07-29T03:22:17;17.10;99.90
666;DHT22;315;48.738;9.126;2023-07-29T03:24:42;17.00;99.90
666;DHT22;315;48.738;9.126;2023-07-29T03:27:08;17.00;99.90
666;DHT22;315;48.738;9.126;2023-07-29T03:29:35;17.00;99.90
666;DHT22;315;48.738;9.126;2023-07-29T03:32:01;17.10;99.90
666;DHT22;315;48.738;9.126;2023-07-29T03:34:26;17.10;99.90
666;DHT22;315;48.738;9.126;2023-07-29T03:36:52;17.10;99.90
666;DHT22;315;48.738;9.126;2023-07-29T03:39:17;17.20;99.90
666;DHT22;315;48.738;9.126;2023-07-29T03:41:43;17.10;99.90
666;DHT22;315;48.738;9.126;2023-07-29T03:44:08;17.00;99.90
666;DHT22;315;48.738;9.126;2023-07-29T03:46:34;17.20;99.90
666;DHT22;315;48.738;9.126;2023-07-29T03:48:59;17.20;99.90
666;DHT22;315;48.738;9.126;2023-07-29T03:51:25;17.20;99.90
666;DHT22;315;48.738;9.126;2023-07-29T03:53:50;17.20;99.90
666;DHT22;315;48.738;9.126;2023-07-29T03:56:16;17.30;99.90
666;DHT22;315;48.738;9.126;2023-07-29T03:58:42;17.20;99.90
666;DHT22;315;48.738;9.126;2023-07-29T04:01:09;17.20;99.90
666;DHT22;315;48.738;9.126;2023-07-29T04:03:34;17.40;99.90
666;DHT22;315;48.738;9.126;2023-07-29T04:06:00;17.50;99.90
666;DHT22;315;48.738;9.126;2023-07-29T04:08:26;17.30;99.90
666;DHT22;315;48.738;9.126;2023-07-29T04:10:51;17.30;99.90
666;DHT22;315;48.738;9.126;2023-07-29T04:13:17;17.30;99.90
666;DHT22;315;48.738;9.126;2023-07-29T04:15:42;17.30;99.90
666;DHT22;315;48.738;9.126;2023-07-29T04:18:08;17.40;99.90
666;DHT22;315;48.738;9.126;2023-07-29T04:20:33;17.40;99.90
666;DHT22;315;48.738;9.126;2023-07-29T04:22:59;17.30;99.90
666;DHT22;315;48.738;9.126;2023-07-29T04:25:25;17.40;99.90
666;DHT22;315;48.738;9.126;2023-07-29T04:27:50;17.30;99.90
666;DHT22;315;48.738;9.126;2023-07-29T04:30:16;17.30;99.90
666;DHT22;315;48.738;9.126;2023-07-29T04:32:41;17.30;99.90
666;DHT22;315;48.738;9.126;2023-07-29T04:35:08;17.20;99.90
666;DHT22;315;48.738;9.126;2023-07-29T04:37:34;17.20;99.90
666;DHT22;315;48.738;9.126;2023-07-29T04:39:59;17.10;99.90
666;DHT22;315;48.738;9.126;2023-07-29T04:42:25;17.10;99.90
666;DHT22;315;48.738;9.126;2023-07-29T04:44:50;17.10;99.90
666;DHT22;315;48.738;9.126;2023-07-29T04:47:16;17.10;99.90
666;DHT22;315;48.738;9.126;2023-07-29T04:49:42;17.10;99.90
666;DHT22;315;48.738;9.126;2023-07-29T04:52:08;17.10;99.90
666;DHT22;315;48.738;9.126;2023-07-29T04:54:33;17.10;99.90
666;DHT22;315;48.738;9.126;2023-07-29T04:56:59;17.10;99.90
666;DHT22;315;48.738;9.126;2023-07-29T04:59:24;17.10;99.90
666;DHT22;315;48.738;9.126;2023-07-29T05:01:50;17.20;99.90
666;DHT22;315;48.738;9.126;2023-07-29T05:04:15;17.50;99.90
666;DHT22;315;48.738;9.126;2023-07-29T05:06:41;17.20;99.90
666;DHT22;315;48.738;9.126;2023-07-29T05:09:17;17.20;99.90
666;DHT22;315;48.738;9.126;2023-07-29T05:11:44;17.20;99.90
666;DHT22;315;48.738;9.126;2023-07-29T05:14:15;17.20;99.90
666;DHT22;315;48.738;9.126;2023-07-29T05:16:40;17.20;99.90
666;DHT22;315;48.738;9.126;2023-07-29T05:19:06;17.20;99.90
666;DHT22;315;48.738;9.126;2023-07-29T05:21:31;17.20;99.90
666;DHT22;315;48.738;9.126;2023-07-29T05:23:57;17.20;99.90
666;DHT22;315;48.738;9.126;2023-07-29T05:26:23;17.10;99.90
666;DHT22;315;48.738;9.126;2023-07-29T05:28:48;17.10;99.90
666;DHT22;315;48.738;9.126;2023-07-29T05:31:14;17.20;99.90
666;DHT22;315;48.738;9.126;2023-07-29T05:33:40;17.20;99.90
666;DHT22;315;48.738;9.126;2023-07-29T05:36:05;17.20;99.90
666;DHT22;315;48.738;9.126;2023-07-29T05:38:31;17.20;99.90
666;DHT22;315;48.738;9.126;2023-07-29T05:40:57;17.30;99.90
666;DHT22;315;48.738;9.126;2023-07-29T05:43:24;17.30;99.90
666;DHT22;315;48.738;9.126;2023-07-29T05:45:50;17.40;99.90
666;DHT22;315;48.738;9.126;2023-07-29T05:48:16;17.50;99.90
666;DHT22;315;48.738;9.126;2023-07-29T05:50:42;17.50;99.90
666;DHT22;315;48.738;9.126;2023-07-29T05:53:07;17.50;99.90
666;DHT22;315;48.738;9.126;2023-07-29T05:55:33;17.60;99.90
666;DHT22;315;48.738;9.126;2023-07-29T05:57:58;17.80;99.90
666;DHT22;315;48.738;9.126;2023-07-29T06:00:24;17.80;99.90
666;DHT22;315;48.738;9.126;2023-07-29T06:02:49;17.80;99.90
666;DHT22;315;48.738;9.126;2023-07-29T06:05:15;17.80;99.90
666;DHT22;315;48.738;9.126;2023-07-29T06:07:40;18.00;99.90
666;DHT22;315;48.738;9.126;2023-07-29T06:10:10;18.10;99.90
666;DHT22;315;48.738;9.126;2023-07-29T06:12:37;18.20;99.90
666;DHT22;315;48.738;9.126;2023-07-29T06:15:04;18.30;99.90
666;DHT22;315;48.738;9.126;2023-07-29T06:17:29;18.30;99.90
666;DHT22;315;48.738;9.126;2023-07-29T06:19:55;18.40;99.90
666;DHT22;315;48.738;9.126;2023-07-29T06:22:20;18.60;99.90
666;DHT22;315;48.738;9.126;2023-07-29T06:24:46;18.90;99.90
666;DHT22;315;48.738;9.126;2023-07-29T06:27:11;19.20;99.90
666;DHT22;315;48.738;9.126;2023-07-29T06:29:37;19.30;99.90
666;DHT22;315;48.738;9.126;2023-07-29T06:32:03;19.40;99.90
666;DHT22;315;48.738;9.126;2023-07-29T06:34:28;19.40;99.90
666;DHT22;315;48.738;9.126;2023-07-29T06:36:54;19.40;99.90
666;DHT22;315;48.738;9.126;2023-07-29T06:39:19;19.30;99.90
666;DHT22;315;48.738;9.126;2023-07-29T06:41:45;19.30;99.90
666;DHT22;315;48.738;9.126;2023-07-29T06:44:10;19.20;99.90
666;DHT22;315;48.738;9.126;2023-07-29T06:46:36;19.10;99.90
666;DHT22;315;48.738;9.126;2023-07-29T06:49:01;19.10;99.90
666;DHT22;315;48.738;9.126;2023-07-29T06:51:27;19.10;99.90
666;DHT22;315;48.738;9.126;2023-07-29T06:53:57;19.00;99.90
666;DHT22;315;48.738;9.126;2023-07-29T06:56:23;18.90;99.90
666;DHT22;315;48.738;9.126;2023-07-29T06:58:48;18.80;99.90
666;DHT22;315;48.738;9.126;2023-07-29T07:01:14;18.70;99.90
666;DHT22;315;48.738;9.126;2023-07-29T07:03:40;18.70;99.90
666;DHT22;315;48.738;9.126;2023-07-29T07:06:05;18.60;99.90
666;DHT22;315;48.738;9.126;2023-07-29T07:08:31;18.40;99.90
666;DHT22;315;48.738;9.126;2023-07-29T07:10:56;18.30;99.90
666;DHT22;315;48.738;9.126;2023-07-29T07:13:22;18.20;99.90
666;DHT22;315;48.738;9.126;2023-07-29T07:15:47;18.10;99.90
666;DHT22;315;48.738;9.126;2023-07-29T07:18:13;18.10;99.90
666;DHT22;315;48.738;9.126;2023-07-29T07:20:38;18.00;99.90
666;DHT22;315;48.738;9.126;2023-07-29T07:23:04;18.00;99.90
666;DHT22;315;48.738;9.126;2023-07-29T07:25:31;18.00;99.90
666;DHT22;315;48.738;9.126;2023-07-29T07:27:56;18.00;99.90
666;DHT22;315;48.738;9.126;2023-07-29T07:30:22;18.00;99.90
666;DHT22;315;48.738;9.126;2023-07-29T07:32:47;18.00;99.90
666;DHT22;315;48.738;9.126;2023-07-29T07:35:13;18.00;99.90
666;DHT22;315;48.738;9.126;2023-07-29T07:37:39;18.10;99.90
666;DHT22;315;48.738;9.126;2023-07-29T07:40:05;18.20;99.90
666;DHT22;315;48.738;9.126;2023-07-29T07:42:30;18.30;99.90
666;DHT22;315;48.738;9.126;2023-07-29T07:44:56;18.30;99.90
666;DHT22;315;48.738;9.126;2023-07-29T07:47:21;18.30;99.90
666;DHT22;315;48.738;9.126;2023-07-29T07:49:47;18.30;99.90
666;DHT22;315;48.738;9.126;2023-07-29T07:52:14;18.40;99.90
666;DHT22;315;48.738;9.126;2023-07-29T07:54:40;18.50;99.90
666;DHT22;315;48.738;9.126;2023-07-29T07:57:05;18.60;99.90
666;DHT22;315;48.738;9.126;2023-07-29T07:59:31;18.70;99.90
666;DHT22;315;48.738;9.126;2023-07-29T08:01:56;18.70;99.90
666;DHT22;315;48.738;9.126;2023-07-29T08:04:22;18.80;99.90
666;DHT22;315;48.738;9.126;2023-07-29T08:06:47;18.90;99.90
666;DHT22;315;48.738;9.126;2023-07-29T08:09:13;19.00;99.90
666;DHT22;315;48.738;9.126;2023-07-29T08:11:39;19.00;99.90
666;DHT22;315;48.738;9.126;2023-07-29T08:14:04;19.20;99.90
666;DHT22;315;48.738;9.126;2023-07-29T08:16:30;19.30;99.90
666;DHT22;315;48.738;9.126;2023-07-29T08:18:55;19.40;99.90
666;DHT22;315;48.738;9.126;2023-07-29T08:21:21;19.50;99.90
666;DHT22;315;48.738;9.126;2023-07-29T08:23:46;19.70;99.90
666;DHT22;315;48.738;9.126;2023-07-29T08:26:12;19.80;99.90
666;DHT22;315;48.738;9.126;2023-07-29T08:28:39;20.20;99.90
666;DHT22;315;48.738;9.126;2023-07-29T08:31:05;20.40;99.90
666;DHT22;315;48.738;9.126;2023-07-29T08:33:31;20.50;99.90
666;DHT22;315;48.738;9.126;2023-07-29T08:35:58;20.60;99.90
666;DHT22;315;48.738;9.126;2023-07-29T08:38:24;20.80;99.90
666;DHT22;315;48.738;9.126;2023-07-29T08:40:58;20.90;99.90
666;DHT22;315;48.738;9.126;2023-07-29T08:43:29;21.10;99.90
666;DHT22;315;48.738;9.126;2023-07-29T08:45:58;21.40;99.90
666;DHT22;315;48.738;9.126;2023-07-29T08:48:32;21.50;99.90
666;DHT22;315;48.738;9.126;2023-07-29T08:51:03;21.80;99.90
666;DHT22;315;48.738;9.126;2023-07-29T08:53:29;22.00;99.90
666;DHT22;315;48.738;9.126;2023-07-29T08:55:56;22.10;99.90
666;DHT22;315;48.738;9.126;2023-07-29T08:58:23;22.30;99.90
666;DHT22;315;48.738;9.126;2023-07-29T09:00:50;22.70;99.90
666;DHT22;315;48.738;9.126;2023-07-29T09:03:16;22.80;99.90
666;DHT22;315;48.738;9.126;2023-07-29T09:05:41;22.80;99.90
666;DHT22;315;48.738;9.126;2023-07-29T09:08:07;22.60;99.90
666;DHT22;315;48.738;9.126;2023-07-29T09:10:36;22.50;99.90
666;DHT22;315;48.738;9.126;2023-07-29T09:13:03;22.60;99.90
666;DHT22;315;48.738;9.126;2023-07-29T09:15:30;22.80;99.90
666;DHT22;315;48.738;9.126;2023-07-29T09:17:57;22.90;99.90
666;DHT22;315;48.738;9.126;2023-07-29T09:20:29;22.80;99.90
666;DHT22;315;48.738;9.126;2023-07-29T09:22:55;22.80;99.90
666;DHT22;315;48.738;9.126;2023-07-29T09:25:25;23.20;99.90
666;DHT22;315;48.738;9.126;2023-07-29T09:27:50;23.60;99.90
666;DHT22;315;48.738;9.126;2023-07-29T09:30:16;24.00;99.90
666;DHT22;315;48.738;9.126;2023-07-29T09:32:42;24.50;99.90
666;DHT22;315;48.738;9.126;2023-07-29T09:35:14;24.90;99.90
666;DHT22;315;48.738;9.126;2023-07-29T09:37:39;25.00;99.90
666;DHT22;315;48.738;9.126;2023-07-29T09:40:06;24.70;99.90
666;DHT22;315;48.738;9.126;2023-07-29T09:42:32;24.50;99.90
666;DHT22;315;48.738;9.126;2023-07-29T09:44:58;24.80;99.90
666;DHT22;315;48.738;9.126;2023-07-29T09:47:25;24.70;99.90
666;DHT22;315;48.738;9.126;2023-07-29T09:49:51;24.50;99.90
666;DHT22;315;48.738;9.126;2023-07-29T09:52:18;24.60;99.90
666;DHT22;315;48.738;9.126;2023-07-29T09:54:44;24.50;99.90
666;DHT22;315;48.738;9.126;2023-07-29T09:57:15;24.20;99.90
666;DHT22;315;48.738;9.126;2023-07-29T09:59:41;24.60;99.90
666;DHT22;315;48.738;9.126;2023-07-29T10:02:13;25.40;99.90
666;DHT22;315;48.738;9.126;2023-07-29T10:04:42;25.80;99.90
666;DHT22;315;48.738;9.126;2023-07-29T10:07:11;26.40;99.90
666;DHT22;315;48.738;9.126;2023-07-29T10:09:39;27.20;99.90
666;DHT22;315;48.738;9.126;2023-07-29T10:12:06;27.70;99.90
666;DHT22;315;48.738;9.126;2023-07-29T10:14:32;27.80;99.90
666;DHT22;315;48.738;9.126;2023-07-29T10:16:57;27.30;99.90
666;DHT22;315;48.738;9.126;2023-07-29T10:19:25;27.30;99.90
666;DHT22;315;48.738;9.126;2023-07-29T10:21:51;27.60;99.90
666;DHT22;315;48.738;9.126;2023-07-29T10:24:19;27.60;99.90
666;DHT22;315;48.738;9.126;2023-07-29T10:26:49;28.20;99.90
666;DHT22;315;48.738;9.126;2023-07-29T10:29:19;27.90;99.90
666;DHT22;315;48.738;9.126;2023-07-29T10:31:48;28.00;99.90
666;DHT22;315;48.738;9.126;2023-07-29T10:34:15;28.50;99.90
666;DHT22;315;48.738;9.126;2023-07-29T10:36:41;29.40;99.90
666;DHT22;315;48.738;9.126;2023-07-29T10:39:07;29.70;99.90
666;DHT22;315;48.738;9.126;2023-07-29T10:47:11;28.50;99.90
666;DHT22;315;48.738;9.126;2023-07-29T10:49:40;28.30;99.90
666;DHT22;315;48.738;9.126;2023-07-29T10:52:06;28.70;99.90
666;DHT22;315;48.738;9.126;2023-07-29T10:54:45;29.60;99.90
666;DHT22;315;48.738;9.126;2023-07-29T10:57:15;30.80;99.90
666;DHT22;315;48.738;9.126;2023-07-29T10:59:53;31.50;99.90
666;DHT22;315;48.738;9.126;2023-07-29T11:02:20;32.40;98.60
666;DHT22;315;48.738;9.126;2023-07-29T11:04:47;33.00;95.90
666;DHT22;315;48.738;9.126;2023-07-29T11:12:44;31.30;97.50
666;DHT22;315;48.738;9.126;2023-07-29T11:15:15;31.00;99.90
666;DHT22;315;48.738;9.126;2023-07-29T11:17:47;30.40;99.40
666;DHT22;315;48.738;9.126;2023-07-29T11:20:14;30.60;99.90
666;DHT22;315;48.738;9.126;2023-07-29T11:22:41;31.50;95.50
666;DHT22;315;48.738;9.126;2023-07-29T11:25:12;32.10;94.00
666;DHT22;315;48.738;9.126;2023-07-29T11:27:38;31.80;92.10
666;DHT22;315;48.738;9.126;2023-07-29T11:30:06;30.20;95.20
666;DHT22;315;48.738;9.126;2023-07-29T11:32:32;29.60;97.90
666;DHT22;315;48.738;9.126;2023-07-29T11:35:06;29.40;99.80
666;DHT22;315;48.738;9.126;2023-07-29T11:37:33;29.30;98.80
666;DHT22;315;48.738;9.126;2023-07-29T11:39:59;29.70;99.80
666;DHT22;315;48.738;9.126;2023-07-29T11:42:26;30.40;98.30
666;DHT22;315;48.738;9.126;2023-07-29T11:44:52;31.20;96.30
666;DHT22;315;48.738;9.126;2023-07-29T11:47:17;32.00;92.80
666;DHT22;315;48.738;9.126;2023-07-29T11:49:43;32.50;92.90
666;DHT22;315;48.738;9.126;2023-07-29T11:52:09;34.40;80.80
666;DHT22;315;48.738;9.126;2023-07-29T11:54:39;35.50;79.00
666;DHT22;315;48.738;9.126;2023-07-29T11:57:09;36.20;70.40
666;DHT22;315;48.738;9.126;2023-07-29T11:59:35;35.70;67.10
666;DHT22;315;48.738;9.126;2023-07-29T12:02:05;34.80;67.30
666;DHT22;315;48.738;9.126;2023-07-29T12:04:31;36.00;66.70
666;DHT22;315;48.738;9.126;2023-07-29T12:06:57;36.30;60.80
666;DHT22;315;48.738;9.126;2023-07-29T12:09:23;36.80;59.30
666;DHT22;315;48.738;9.126;2023-07-29T12:11:49;37.20;58.90
666;DHT22;315;48.738;9.126;2023-07-29T12:14:16;37.10;58.50
666;DHT22;315;48.738;9.126;2023-07-29T12:16:43;36.10;57.20
666;DHT22;315;48.738;9.126;2023-07-29T12:19:11;36.10;57.80
666;DHT22;315;48.738;9.126;2023-07-29T12:21:37;35.80;56.20
666;DHT22;315;48.738;9.126;2023-07-29T12:24:03;35.90;58.20
666;DHT22;315;48.738;9.126;2023-07-29T12:26:29;36.80;56.90
666;DHT22;315;48.738;9.126;2023-07-29T12:28:55;36.00;55.90
666;DHT22;315;48.738;9.126;2023-07-29T12:31:21;35.90;57.20
666;DHT22;315;48.738;9.126;2023-07-29T12:33:47;36.60;57.60
666;DHT22;315;48.738;9.126;2023-07-29T12:36:12;36.60;56.00
666;DHT22;315;48.738;9.126;2023-07-29T12:38:38;37.30;52.10
666;DHT22;315;48.738;9.126;2023-07-29T12:41:03;36.00;52.40
666;DHT22;315;48.738;9.126;2023-07-29T12:43:29;35.70;53.70
666;DHT22;315;48.738;9.126;2023-07-29T12:45:56;36.50;52.70
666;DHT22;315;48.738;9.126;2023-07-29T12:48:21;37.30;51.20
666;DHT22;315;48.738;9.126;2023-07-29T12:50:47;38.60;49.10
666;DHT22;315;48.738;9.126;2023-07-29T12:53:12;39.20;48.20
666;DHT22;315;48.738;9.126;2023-07-29T12:55:38;38.40;47.20
666;DHT22;315;48.738;9.126;2023-07-29T12:58:04;38.30;46.90
666;DHT22;315;48.738;9.126;2023-07-29T13:00:30;36.10;47.50
666;DHT22;315;48.738;9.126;2023-07-29T13:02:55;34.60;49.60
666;DHT22;315;48.738;9.126;2023-07-29T13:05:21;33.70;52.00
666;DHT22;315;48.738;9.126;2023-07-29T13:07:47;34.40;51.00
666;DHT22;315;48.738;9.126;2023-07-29T13:10:12;34.90;50.50
666;DHT22;315;48.738;9.126;2023-07-29T13:12:39;35.00;50.50
666;DHT22;315;48.738;9.126;2023-07-29T13:15:05;34.40;50.20
666;DHT22;315;48.738;9.126;2023-07-29T13:17:33;33.90;52.20
666;DHT22;315;48.738;9.126;2023-07-29T13:19:58;34.00;51.90
666;DHT22;315;48.738;9.126;2023-07-29T13:22:24;33.10;52.20
666;DHT22;315;48.738;9.126;2023-07-29T13:24:49;32.80;54.50
666;DHT22;315;48.738;9.126;2023-07-29T13:27:15;33.40;53.90
666;DHT22;315;48.738;9.126;2023-07-29T13:29:40;32.70;53.90
666;DHT22;315;48.738;9.126;2023-07-29T13:32:07;32.20;55.50
666;DHT22;315;48.738;9.126;2023-07-29T13:34:33;31.50;55.80
666;DHT22;315;48.738;9.126;2023-07-29T13:36:59;31.00;57.40
666;DHT22;315;48.738;9.126;2023-07-29T13:39:25;30.40;59.50
666;DHT22;315;48.738;9.126;2023-07-29T13:41:50;29.80;60.80
666;DHT22;315;48.738;9.126;2023-07-29T13:44:16;29.20;62.60
666;DHT22;315;48.738;9.126;2023-07-29T13:46:41;29.20;65.00
666;DHT22;315;48.738;9.126;2023-07-29T13:49:07;29.40;63.80
666;DHT22;315;48.738;9.126;2023-07-29T13:51:32;29.50;64.10
666;DHT22;315;48.738;9.126;2023-07-29T13:53:57;29.40;66.70
666;DHT22;315;48.738;9.126;2023-07-29T13:56:23;29.30;66.70
666;DHT22;315;48.738;9.126;2023-07-29T13:58:48;28.90;69.50
666;DHT22;315;48.738;9.126;2023-07-29T14:01:14;28.70;69.30
666;DHT22;315;48.738;9.126;2023-07-29T14:03:39;28.70;70.60
666;DHT22;315;48.738;9.126;2023-07-29T14:06:05;29.00;71.50
666;DHT22;315;48.738;9.126;2023-07-29T14:08:31;29.00;69.70
666;DHT22;315;48.738;9.126;2023-07-29T14:10:56;29.00;71.80
666;DHT22;315;48.738;9.126;2023-07-29T14:13:22;28.60;72.60
666;DHT22;315;48.738;9.126;2023-07-29T14:15:47;28.40;74.80
666;DHT22;315;48.738;9.126;2023-07-29T14:18:13;28.20;78.40
666;DHT22;315;48.738;9.126;2023-07-29T14:20:38;28.10;78.20
666;DHT22;315;48.738;9.126;2023-07-29T14:23:04;28.10;77.80
666;DHT22;315;48.738;9.126;2023-07-29T14:25:29;28.30;79.30
666;DHT22;315;48.738;9.126;2023-07-29T14:27:55;28.50;78.50
666;DHT22;315;48.738;9.126;2023-07-29T14:30:20;28.30;76.50
666;DHT22;315;48.738;9.126;2023-07-29T14:32:46;27.80;76.50
666;DHT22;315;48.738;9.126;2023-07-29T14:35:12;27.70;80.50
666;DHT22;315;48.738;9.126;2023-07-29T14:37:37;27.80;81.10
666;DHT22;315;48.738;9.126;2023-07-29T14:40:04;28.10;78.90
666;DHT22;315;48.738;9.126;2023-07-29T14:42:30;28.50;76.00
666;DHT22;315;48.738;9.126;2023-07-29T14:44:55;28.60;75.80
666;DHT22;315;48.738;9.126;2023-07-29T14:47:21;28.30;77.20
666;DHT22;315;48.738;9.126;2023-07-29T14:49:46;28.00;76.70
666;DHT22;315;48.738;9.126;2023-07-29T14:52:12;27.70;79.10
666;DHT22;315;48.738;9.126;2023-07-29T14:54:37;27.60;83.40
666;DHT22;315;48.738;9.126;2023-07-29T14:57:05;27.60;81.70
666;DHT22;315;48.738;9.126;2023-07-29T14:59:31;27.70;82.10
666;DHT22;315;48.738;9.126;2023-07-29T15:01:57;27.70;79.00
666;DHT22;315;48.738;9.126;2023-07-29T15:04:22;27.80;81.40
666;DHT22;315;48.738;9.126;2023-07-29T15:06:48;27.90;83.10
666;DHT22;315;48.738;9.126;2023-07-29T15:09:13;27.90;84.70
666;DHT22;315;48.738;9.126;2023-07-29T15:11:39;27.80;87.30
666;DHT22;315;48.738;9.126;2023-07-29T15:14:06;27.70;83.20
666;DHT22;315;48.738;9.126;2023-07-29T15:16:31;27.50;83.00
666;DHT22;315;48.738;9.126;2023-07-29T15:18:59;27.20;84.90
666;DHT22;315;48.738;9.126;2023-07-29T15:21:24;27.10;84.90
666;DHT22;315;48.738;9.126;2023-07-29T15:23:50;27.10;85.50
666;DHT22;315;48.738;9.126;2023-07-29T15:26:15;27.30;85.50
666;DHT22;315;48.738;9.126;2023-07-29T15:28:41;27.40;85.80
666;DHT22;315;48.738;9.126;2023-07-29T15:31:06;27.50;83.20
666;DHT22;315;48.738;9.126;2023-07-29T15:33:32;27.60;83.70
666;DHT22;315;48.738;9.126;2023-07-29T15:36:00;27.70;83.80
666;DHT22;315;48.738;9.126;2023-07-29T15:38:25;27.60;85.90
666;DHT22;315;48.738;9.126;2023-07-29T15:40:51;27.60;82.70
666;DHT22;315;48.738;9.126;2023-07-29T15:43:17;27.60;85.30
666;DHT22;315;48.738;9.126;2023-07-29T15:45:43;27.70;83.20
666;DHT22;315;48.738;9.126;2023-07-29T15:48:09;27.50;83.20
666;DHT22;315;48.738;9.126;2023-07-29T15:50:35;27.30;85.80
666;DHT22;315;48.738;9.126;2023-07-29T15:53:00;26.90;89.60
666;DHT22;315;48.738;9.126;2023-07-29T15:55:28;26.80;89.40
666;DHT22;315;48.738;9.126;2023-07-29T15:57:54;26.90;90.20
666;DHT22;315;48.738;9.126;2023-07-29T16:00:19;27.10;89.60
666;DHT22;315;48.738;9.126;2023-07-29T16:02:47;26.90;90.30
666;DHT22;315;48.738;9.126;2023-07-29T16:05:13;26.70;91.70
666;DHT22;315;48.738;9.126;2023-07-29T16:07:38;26.40;90.40
666;DHT22;315;48.738;9.126;2023-07-29T16:10:04;26.20;91.30
666;DHT22;315;48.738;9.126;2023-07-29T16:12:30;26.10;92.10
666;DHT22;315;48.738;9.126;2023-07-29T16:14:55;26.00;93.10
666;DHT22;315;48.738;9.126;2023-07-29T16:17:21;26.10;93.20
666;DHT22;315;48.738;9.126;2023-07-29T16:19:58;26.10;92.80
666;DHT22;315;48.738;9.126;2023-07-29T16:22:23;26.10;93.70
666;DHT22;315;48.738;9.126;2023-07-29T16:24:49;26.00;92.10
666;DHT22;315;48.738;9.126;2023-07-29T16:27:15;26.00;93.20
666;DHT22;315;48.738;9.126;2023-07-29T16:29:41;26.10;93.80
666;DHT22;315;48.738;9.126;2023-07-29T16:32:06;26.00;93.00
666;DHT22;315;48.738;9.126;2023-07-29T16:34:32;26.00;93.20
666;DHT22;315;48.738;9.126;2023-07-29T16:36:57;25.80;93.50
666;DHT22;315;48.738;9.126;2023-07-29T16:39:23;25.80;94.40
666;DHT22;315;48.738;9.126;2023-07-29T16:41:48;25.70;94.40
666;DHT22;315;48.738;9.126;2023-07-29T16:44:14;25.60;94.40
666;DHT22;315;48.738;9.126;2023-07-29T16:46:39;25.60;95.10
666;DHT22;315;48.738;9.126;2023-07-29T16:49:05;25.60;95.00